sensor_id;sensor_type;location;lat;lon;timestamp;P1;durP1;ratioP1;P2;durP2;ratioP2
23720;SDS011;42950;52.134;5.578;2024-01-27T00:01:35;18.27;;;4.32;;
23720;SDS011;42950;52.134;5.578;2024-01-27T00:04:01;23.55;;;4.57;;
23720;SDS011;42950;52.134;5.578;2024-01-27T00:06:26;19.17;;;4.70;;
23720;SDS011;42950;52.134;5.578;2024-01-27T00:08:52;21.52;;;4.53;;
23720;SDS011;42950;52.134;5.578;2024-01-27T00:11:18;20.10;;;4.25;;
23720;SDS011;42950;52.134;5.578;2024-01-27T00:13:44;23.42;;;4.47;;
23720;SDS011;42950;52.134;5.578;2024-01-27T00:16:10;18.98;;;4.63;;
23720;SDS011;42950;52.134;5.578;2024-01-27T00:18:36;19.33;;;5.20;;
23720;SDS011;42950;52.134;5.578;2024-01-27T00:21:02;21.95;;;5.50;;
23720;SDS011;42950;52.134;5.578;2024-01-27T00:23:28;20.50;;;4.53;;
23720;SDS011;42950;52.134;5.578;2024-01-27T00:25:54;21.95;;;3.97;;
23720;SDS011;42950;52.134;5.578;2024-01-27T00:28:19;26.88;;;5.05;;
23720;SDS011;42950;52.134;5.578;2024-01-27T00:30:45;24.38;;;5.03;;
23720;SDS011;42950;52.134;5.578;2024-01-27T00:33:10;28.02;;;5.55;;
23720;SDS011;42950;52.134;5.578;2024-01-27T00:35:36;16.65;;;4.07;;
23720;SDS011;42950;52.134;5.578;2024-01-27T00:38:02;27.23;;;4.65;;
23720;SDS011;42950;52.134;5.578;2024-01-27T00:40:27;17.20;;;4.22;;
23720;SDS011;42950;52.134;5.578;2024-01-27T00:42:53;21.73;;;4.82;;
23720;SDS011;42950;52.134;5.578;2024-01-27T00:45:19;20.92;;;4.40;;
23720;SDS011;42950;52.134;5.578;2024-01-27T00:47:47;23.52;;;4.07;;
23720;SDS011;42950;52.134;5.578;2024-01-27T00:50:16;20.48;;;4.93;;
23720;SDS011;42950;52.134;5.578;2024-01-27T00:52:42;21.80;;;4.78;;
23720;SDS011;42950;52.134;5.578;2024-01-27T00:55:07;18.58;;;4.88;;
23720;SDS011;42950;52.134;5.578;2024-01-27T00:57:36;18.80;;;4.45;;
23720;SDS011;42950;52.134;5.578;2024-01-27T01:00:03;19.33;;;4.40;;
23720;SDS011;42950;52.134;5.578;2024-01-27T01:02:31;21.73;;;4.90;;
23720;SDS011;42950;52.134;5.578;2024-01-27T01:04:57;15.38;;;3.47;;
23720;SDS011;42950;52.134;5.578;2024-01-27T01:07:22;18.85;;;3.92;;
23720;SDS011;42950;52.134;5.578;2024-01-27T01:09:48;23.33;;;4.22;;
23720;SDS011;42950;52.134;5.578;2024-01-27T01:12:13;19.33;;;4.28;;
23720;SDS011;42950;52.134;5.578;2024-01-27T01:14:40;21.30;;;4.30;;
23720;SDS011;42950;52.134;5.578;2024-01-27T01:17:06;17.55;;;4.25;;
23720;SDS011;42950;52.134;5.578;2024-01-27T01:19:32;20.88;;;4.10;;
23720;SDS011;42950;52.134;5.578;2024-01-27T01:21:57;18.52;;;4.57;;
23720;SDS011;42950;52.134;5.578;2024-01-27T01:24:23;20.40;;;3.85;;
23720;SDS011;42950;52.134;5.578;2024-01-27T01:26:48;18.23;;;4.30;;
23720;SDS011;42950;52.134;5.578;2024-01-27T01:29:14;24.98;;;4.50;;
23720;SDS011;42950;52.134;5.578;2024-01-27T01:31:41;18.92;;;3.88;;
23720;SDS011;42950;52.134;5.578;2024-01-27T01:34:07;16.40;;;3.88;;
23720;SDS011;42950;52.134;5.578;2024-01-27T01:36:33;15.57;;;3.55;;
23720;SDS011;42950;52.134;5.578;2024-01-27T01:38:59;16.90;;;4.45;;
23720;SDS011;42950;52.134;5.578;2024-01-27T01:41:24;17.45;;;4.32;;
23720;SDS011;42950;52.134;5.578;2024-01-27T01:43:50;17.50;;;3.97;;
23720;SDS011;42950;52.134;5.578;2024-01-27T01:46:16;20.38;;;4.13;;
23720;SDS011;42950;52.134;5.578;2024-01-27T01:48:42;14.38;;;3.85;;
23720;SDS011;42950;52.134;5.578;2024-01-27T01:51:08;18.08;;;3.83;;
23720;SDS011;42950;52.134;5.578;2024-01-27T01:53:34;14.75;;;3.75;;
23720;SDS011;42950;52.134;5.578;2024-01-27T01:55:59;18.38;;;4.10;;
23720;SDS011;42950;52.134;5.578;2024-01-27T01:58:26;17.80;;;3.95;;
23720;SDS011;42950;52.134;5.578;2024-01-27T02:00:58;24.38;;;4.10;;
23720;SDS011;42950;52.134;5.578;2024-01-27T02:03:25;20.48;;;4.20;;
23720;SDS011;42950;52.134;5.578;2024-01-27T02:05:50;16.77;;;3.90;;
23720;SDS011;42950;52.134;5.578;2024-01-27T02:08:16;17.27;;;3.78;;
23720;SDS011;42950;52.134;5.578;2024-01-27T02:10:42;18.08;;;3.92;;
23720;SDS011;42950;52.134;5.578;2024-01-27T02:13:20;18.10;;;4.28;;
23720;SDS011;42950;52.134;5.578;2024-01-27T02:15:48;18.20;;;3.85;;
23720;SDS011;42950;52.134;5.578;2024-01-27T02:18:14;19.20;;;4.03;;
23720;SDS011;42950;52.134;5.578;2024-01-27T02:20:39;16.73;;;3.92;;
23720;SDS011;42950;52.134;5.578;2024-01-27T02:23:05;19.00;;;3.50;;
23720;SDS011;42950;52.134;5.578;2024-01-27T02:25:31;20.08;;;3.83;;
23720;SDS011;42950;52.134;5.578;2024-01-27T02:27:57;21.02;;;4.22;;
23720;SDS011;42950;52.134;5.578;2024-01-27T02:30:23;16.00;;;4.05;;
23720;SDS011;42950;52.134;5.578;2024-01-27T02:32:49;20.83;;;3.92;;
23720;SDS011;42950;52.134;5.578;2024-01-27T02:35:14;13.95;;;3.78;;
23720;SDS011;42950;52.134;5.578;2024-01-27T02:37:41;18.15;;;3.35;;
23720;SDS011;42950;52.134;5.578;2024-01-27T02:40:07;21.27;;;4.10;;
23720;SDS011;42950;52.134;5.578;2024-01-27T02:42:34;14.85;;;3.42;;
23720;SDS011;42950;52.134;5.578;2024-01-27T02:45:00;15.10;;;2.97;;
23720;SDS011;42950;52.134;5.578;2024-01-27T02:47:26;18.77;;;4.00;;
23720;SDS011;42950;52.134;5.578;2024-01-27T02:49:51;23.90;;;4.25;;
23720;SDS011;42950;52.134;5.578;2024-01-27T02:52:17;17.77;;;4.07;;
23720;SDS011;42950;52.134;5.578;2024-01-27T02:54:42;14.00;;;4.00;;
23720;SDS011;42950;52.134;5.578;2024-01-27T02:57:08;20.05;;;4.47;;
23720;SDS011;42950;52.134;5.578;2024-01-27T02:59:34;15.52;;;3.55;;
23720;SDS011;42950;52.134;5.578;2024-01-27T03:02:00;15.32;;;3.65;;
23720;SDS011;42950;52.134;5.578;2024-01-27T03:04:25;12.93;;;3.45;;
23720;SDS011;42950;52.134;5.578;2024-01-27T03:06:51;15.93;;;3.78;;
23720;SDS011;42950;52.134;5.578;2024-01-27T03:09:16;15.02;;;3.70;;
23720;SDS011;42950;52.134;5.578;2024-01-27T03:11:43;15.65;;;3.72;;
23720;SDS011;42950;52.134;5.578;2024-01-27T03:14:08;17.67;;;4.60;;
23720;SDS011;42950;52.134;5.578;2024-01-27T03:16:35;13.82;;;3.75;;
23720;SDS011;42950;52.134;5.578;2024-01-27T03:19:01;20.67;;;4.32;;
23720;SDS011;42950;52.134;5.578;2024-01-27T03:21:26;16.88;;;5.13;;
23720;SDS011;42950;52.134;5.578;2024-01-27T03:23:52;23.90;;;4.90;;
23720;SDS011;42950;52.134;5.578;2024-01-27T03:26:18;15.25;;;4.22;;
23720;SDS011;42950;52.134;5.578;2024-01-27T03:28:44;19.15;;;4.32;;
23720;SDS011;42950;52.134;5.578;2024-01-27T03:31:09;15.77;;;3.92;;
23720;SDS011;42950;52.134;5.578;2024-01-27T03:33:35;17.95;;;3.90;;
23720;SDS011;42950;52.134;5.578;2024-01-27T03:36:00;19.80;;;3.88;;
23720;SDS011;42950;52.134;5.578;2024-01-27T03:38:26;16.35;;;3.78;;
23720;SDS011;42950;52.134;5.578;2024-01-27T03:40:51;17.25;;;4.18;;
23720;SDS011;42950;52.134;5.578;2024-01-27T03:43:17;17.00;;;4.47;;
23720;SDS011;42950;52.134;5.578;2024-01-27T03:45:43;18.27;;;4.65;;
23720;SDS011;42950;52.134;5.578;2024-01-27T03:48:08;18.70;;;4.32;;
23720;SDS011;42950;52.134;5.578;2024-01-27T03:50:34;20.10;;;3.90;;
23720;SDS011;42950;52.134;5.578;2024-01-27T03:52:59;14.95;;;4.30;;
23720;SDS011;42950;52.134;5.578;2024-01-27T03:55:25;18.50;;;4.53;;
23720;SDS011;42950;52.134;5.578;2024-01-27T03:57:50;18.40;;;4.20;;
23720;SDS011;42950;52.134;5.578;2024-01-27T04:00:16;13.27;;;4.30;;
23720;SDS011;42950;52.134;5.578;2024-01-27T04:02:42;15.13;;;4.57;;
23720;SDS011;42950;52.134;5.578;2024-01-27T04:05:07;13.18;;;5.00;;
23720;SDS011;42950;52.134;5.578;2024-01-27T04:07:33;15.25;;;5.63;;
23720;SDS011;42950;52.134;5.578;2024-01-27T04:09:58;14.60;;;4.55;;
23720;SDS011;42950;52.134;5.578;2024-01-27T04:12:24;19.25;;;5.43;;
23720;SDS011;42950;52.134;5.578;2024-01-27T04:14:50;15.05;;;5.85;;
23720;SDS011;42950;52.134;5.578;2024-01-27T04:17:16;12.77;;;5.30;;
23720;SDS011;42950;52.134;5.578;2024-01-27T04:19:41;15.52;;;5.47;;
23720;SDS011;42950;52.134;5.578;2024-01-27T04:22:07;17.65;;;5.85;;
23720;SDS011;42950;52.134;5.578;2024-01-27T04:24:32;15.77;;;5.47;;
23720;SDS011;42950;52.134;5.578;2024-01-27T04:26:58;21.73;;;6.35;;
23720;SDS011;42950;52.134;5.578;2024-01-27T04:29:24;19.17;;;6.13;;
23720;SDS011;42950;52.134;5.578;2024-01-27T04:31:50;17.00;;;5.70;;
23720;SDS011;42950;52.134;5.578;2024-01-27T04:34:16;17.63;;;6.35;;
23720;SDS011;42950;52.134;5.578;2024-01-27T04:36:41;14.70;;;5.70;;
23720;SDS011;42950;52.134;5.578;2024-01-27T04:39:07;16.88;;;7.25;;
23720;SDS011;42950;52.134;5.578;2024-01-27T04:41:32;20.58;;;6.65;;
23720;SDS011;42950;52.134;5.578;2024-01-27T04:43:58;19.75;;;7.13;;
23720;SDS011;42950;52.134;5.578;2024-01-27T04:46:24;17.27;;;6.22;;
23720;SDS011;42950;52.134;5.578;2024-01-27T04:48:49;16.90;;;6.60;;
23720;SDS011;42950;52.134;5.578;2024-01-27T04:51:15;18.90;;;7.32;;
23720;SDS011;42950;52.134;5.578;2024-01-27T04:53:40;15.65;;;6.63;;
23720;SDS011;42950;52.134;5.578;2024-01-27T04:56:06;18.48;;;6.43;;
23720;SDS011;42950;52.134;5.578;2024-01-27T04:58:34;14.68;;;6.43;;
23720;SDS011;42950;52.134;5.578;2024-01-27T05:01:01;21.23;;;7.13;;
23720;SDS011;42950;52.134;5.578;2024-01-27T05:03:27;14.90;;;6.47;;
23720;SDS011;42950;52.134;5.578;2024-01-27T05:05:52;16.60;;;6.90;;
23720;SDS011;42950;52.134;5.578;2024-01-27T05:08:18;18.05;;;6.80;;
23720;SDS011;42950;52.134;5.578;2024-01-27T05:10:44;18.90;;;7.05;;
23720;SDS011;42950;52.134;5.578;2024-01-27T05:13:10;21.77;;;7.28;;
23720;SDS011;42950;52.134;5.578;2024-01-27T05:15:35;20.02;;;6.88;;
23720;SDS011;42950;52.134;5.578;2024-01-27T05:18:01;17.90;;;7.25;;
23720;SDS011;42950;52.134;5.578;2024-01-27T05:20:26;15.60;;;8.02;;
23720;SDS011;42950;52.134;5.578;2024-01-27T05:22:52;21.00;;;7.65;;
23720;SDS011;42950;52.134;5.578;2024-01-27T05:25:18;19.50;;;7.43;;
23720;SDS011;42950;52.134;5.578;2024-01-27T05:27:43;21.20;;;7.65;;
23720;SDS011;42950;52.134;5.578;2024-01-27T05:30:09;25.20;;;8.15;;
23720;SDS011;42950;52.134;5.578;2024-01-27T05:32:35;21.48;;;8.95;;
23720;SDS011;42950;52.134;5.578;2024-01-27T05:35:00;21.10;;;7.97;;
23720;SDS011;42950;52.134;5.578;2024-01-27T05:37:26;21.92;;;8.48;;
23720;SDS011;42950;52.134;5.578;2024-01-27T05:39:52;23.48;;;8.93;;
23720;SDS011;42950;52.134;5.578;2024-01-27T05:42:17;22.27;;;8.25;;
23720;SDS011;42950;52.134;5.578;2024-01-27T05:44:43;22.55;;;8.55;;
23720;SDS011;42950;52.134;5.578;2024-01-27T05:47:10;24.60;;;9.07;;
23720;SDS011;42950;52.134;5.578;2024-01-27T05:49:36;26.65;;;8.52;;
23720;SDS011;42950;52.134;5.578;2024-01-27T05:52:01;20.10;;;8.93;;
23720;SDS011;42950;52.134;5.578;2024-01-27T05:54:27;17.38;;;9.10;;
23720;SDS011;42950;52.134;5.578;2024-01-27T05:56:53;23.55;;;9.65;;
23720;SDS011;42950;52.134;5.578;2024-01-27T05:59:19;21.88;;;10.07;;
23720;SDS011;42950;52.134;5.578;2024-01-27T06:01:44;19.33;;;10.10;;
23720;SDS011;42950;52.134;5.578;2024-01-27T06:04:10;23.90;;;9.98;;
23720;SDS011;42950;52.134;5.578;2024-01-27T06:06:39;23.98;;;10.77;;
23720;SDS011;42950;52.134;5.578;2024-01-27T06:09:05;20.95;;;9.75;;
23720;SDS011;42950;52.134;5.578;2024-01-27T06:11:30;25.77;;;10.60;;
23720;SDS011;42950;52.134;5.578;2024-01-27T06:13:56;23.27;;;10.15;;
23720;SDS011;42950;52.134;5.578;2024-01-27T06:16:23;25.67;;;10.80;;
23720;SDS011;42950;52.134;5.578;2024-01-27T06:18:49;22.42;;;10.50;;
23720;SDS011;42950;52.134;5.578;2024-01-27T06:21:14;28.10;;;10.60;;
23720;SDS011;42950;52.134;5.578;2024-01-27T06:23:40;24.67;;;11.10;;
23720;SDS011;42950;52.134;5.578;2024-01-27T06:26:06;24.67;;;11.15;;
23720;SDS011;42950;52.134;5.578;2024-01-27T06:28:32;21.85;;;10.68;;
23720;SDS011;42950;52.134;5.578;2024-01-27T06:30:59;23.50;;;11.65;;
23720;SDS011;42950;52.134;5.578;2024-01-27T06:33:28;27.25;;;11.15;;
23720;SDS011;42950;52.134;5.578;2024-01-27T06:35:53;22.95;;;11.15;;
23720;SDS011;42950;52.134;5.578;2024-01-27T06:38:19;23.40;;;10.85;;
23720;SDS011;42950;52.134;5.578;2024-01-27T06:40:45;21.40;;;11.40;;
23720;SDS011;42950;52.134;5.578;2024-01-27T06:43:13;26.50;;;11.45;;
23720;SDS011;42950;52.134;5.578;2024-01-27T06:45:39;22.25;;;11.07;;
23720;SDS011;42950;52.134;5.578;2024-01-27T06:48:05;27.80;;;12.68;;
23720;SDS011;42950;52.134;5.578;2024-01-27T06:50:32;21.77;;;12.02;;
23720;SDS011;42950;52.134;5.578;2024-01-27T06:52:58;22.45;;;12.70;;
23720;SDS011;42950;52.134;5.578;2024-01-27T06:55:24;24.52;;;12.23;;
23720;SDS011;42950;52.134;5.578;2024-01-27T06:57:49;31.10;;;14.00;;
23720;SDS011;42950;52.134;5.578;2024-01-27T07:00:15;27.55;;;13.00;;
23720;SDS011;42950;52.134;5.578;2024-01-27T07:02:41;27.85;;;13.60;;
23720;SDS011;42950;52.134;5.578;2024-01-27T07:05:07;27.73;;;13.27;;
23720;SDS011;42950;52.134;5.578;2024-01-27T07:07:34;29.13;;;13.27;;
23720;SDS011;42950;52.134;5.578;2024-01-27T07:10:00;22.90;;;12.80;;
23720;SDS011;42950;52.134;5.578;2024-01-27T07:12:25;27.48;;;14.32;;
23720;SDS011;42950;52.134;5.578;2024-01-27T07:14:51;31.58;;;15.73;;
23720;SDS011;42950;52.134;5.578;2024-01-27T07:17:17;32.35;;;16.15;;
23720;SDS011;42950;52.134;5.578;2024-01-27T07:19:43;23.92;;;14.63;;
23720;SDS011;42950;52.134;5.578;2024-01-27T07:22:09;27.85;;;15.00;;
23720;SDS011;42950;52.134;5.578;2024-01-27T07:24:34;32.90;;;14.85;;
23720;SDS011;42950;52.134;5.578;2024-01-27T07:27:00;29.17;;;13.98;;
23720;SDS011;42950;52.134;5.578;2024-01-27T07:29:26;31.40;;;13.60;;
23720;SDS011;42950;52.134;5.578;2024-01-27T07:31:52;28.02;;;15.07;;
23720;SDS011;42950;52.134;5.578;2024-01-27T07:34:18;31.70;;;15.40;;
23720;SDS011;42950;52.134;5.578;2024-01-27T07:36:44;32.03;;;14.98;;
23720;SDS011;42950;52.134;5.578;2024-01-27T07:39:10;28.85;;;14.32;;
23720;SDS011;42950;52.134;5.578;2024-01-27T07:41:36;28.05;;;14.23;;
23720;SDS011;42950;52.134;5.578;2024-01-27T07:44:08;27.65;;;13.73;;
23720;SDS011;42950;52.134;5.578;2024-01-27T07:46:37;26.05;;;13.45;;
23720;SDS011;42950;52.134;5.578;2024-01-27T07:49:04;29.73;;;13.13;;
23720;SDS011;42950;52.134;5.578;2024-01-27T07:51:31;24.90;;;13.10;;
23720;SDS011;42950;52.134;5.578;2024-01-27T07:53:57;27.85;;;12.90;;
23720;SDS011;42950;52.134;5.578;2024-01-27T07:56:23;23.02;;;12.00;;
23720;SDS011;42950;52.134;5.578;2024-01-27T07:58:48;30.23;;;12.98;;
23720;SDS011;42950;52.134;5.578;2024-01-27T08:01:14;24.30;;;12.13;;
23720;SDS011;42950;52.134;5.578;2024-01-27T08:03:41;27.98;;;12.73;;
23720;SDS011;42950;52.134;5.578;2024-01-27T08:06:07;27.98;;;12.98;;
23720;SDS011;42950;52.134;5.578;2024-01-27T08:08:36;27.98;;;13.18;;
23720;SDS011;42950;52.134;5.578;2024-01-27T08:11:02;29.83;;;12.32;;
23720;SDS011;42950;52.134;5.578;2024-01-27T08:13:28;30.80;;;11.93;;
23720;SDS011;42950;52.134;5.578;2024-01-27T08:15:53;22.38;;;12.10;;
23720;SDS011;42950;52.134;5.578;2024-01-27T08:18:19;26.98;;;12.45;;
23720;SDS011;42950;52.134;5.578;2024-01-27T08:20:44;24.73;;;11.57;;
23720;SDS011;42950;52.134;5.578;2024-01-27T08:23:10;26.13;;;11.40;;
23720;SDS011;42950;52.134;5.578;2024-01-27T08:25:36;30.50;;;11.75;;
23720;SDS011;42950;52.134;5.578;2024-01-27T08:28:01;20.80;;;10.90;;
23720;SDS011;42950;52.134;5.578;2024-01-27T08:30:27;24.33;;;11.50;;
23720;SDS011;42950;52.134;5.578;2024-01-27T08:32:52;25.83;;;11.50;;
23720;SDS011;42950;52.134;5.578;2024-01-27T08:35:18;25.45;;;10.95;;
23720;SDS011;42950;52.134;5.578;2024-01-27T08:37:43;30.35;;;11.75;;
23720;SDS011;42950;52.134;5.578;2024-01-27T08:40:09;26.13;;;10.73;;
23720;SDS011;42950;52.134;5.578;2024-01-27T08:42:35;24.42;;;11.07;;
23720;SDS011;42950;52.134;5.578;2024-01-27T08:45:00;29.88;;;11.30;;
23720;SDS011;42950;52.134;5.578;2024-01-27T08:47:26;22.33;;;10.68;;
23720;SDS011;42950;52.134;5.578;2024-01-27T08:49:51;28.42;;;11.32;;
23720;SDS011;42950;52.134;5.578;2024-01-27T08:52:17;25.48;;;11.70;;
23720;SDS011;42950;52.134;5.578;2024-01-27T08:54:42;25.90;;;11.82;;
23720;SDS011;42950;52.134;5.578;2024-01-27T08:57:08;28.20;;;12.77;;
23720;SDS011;42950;52.134;5.578;2024-01-27T08:59:33;31.23;;;13.48;;
23720;SDS011;42950;52.134;5.578;2024-01-27T09:02:00;30.70;;;13.52;;
23720;SDS011;42950;52.134;5.578;2024-01-27T09:04:26;23.30;;;12.20;;
23720;SDS011;42950;52.134;5.578;2024-01-27T09:06:51;25.20;;;11.93;;
23720;SDS011;42950;52.134;5.578;2024-01-27T09:09:17;25.05;;;11.35;;
23720;SDS011;42950;52.134;5.578;2024-01-27T09:11:42;27.42;;;10.60;;
23720;SDS011;42950;52.134;5.578;2024-01-27T09:14:09;25.02;;;11.38;;
23720;SDS011;42950;52.134;5.578;2024-01-27T09:16:35;26.65;;;10.77;;
23720;SDS011;42950;52.134;5.578;2024-01-27T09:19:01;26.60;;;10.00;;
23720;SDS011;42950;52.134;5.578;2024-01-27T09:21:26;51.40;;;27.30;;
23720;SDS011;42950;52.134;5.578;2024-01-27T09:23:54;31.35;;;12.00;;
23720;SDS011;42950;52.134;5.578;2024-01-27T09:26:20;31.80;;;11.20;;
23720;SDS011;42950;52.134;5.578;2024-01-27T09:28:48;31.50;;;11.25;;
23720;SDS011;42950;52.134;5.578;2024-01-27T09:31:20;28.65;;;10.65;;
23720;SDS011;42950;52.134;5.578;2024-01-27T09:33:50;26.00;;;10.57;;
23720;SDS011;42950;52.134;5.578;2024-01-27T09:36:18;26.48;;;10.77;;
23720;SDS011;42950;52.134;5.578;2024-01-27T09:38:44;22.80;;;10.35;;
23720;SDS011;42950;52.134;5.578;2024-01-27T09:41:11;24.42;;;10.63;;
23720;SDS011;42950;52.134;5.578;2024-01-27T09:43:42;26.58;;;10.85;;
23720;SDS011;42950;52.134;5.578;2024-01-27T09:46:10;26.30;;;10.50;;
23720;SDS011;42950;52.134;5.578;2024-01-27T09:48:39;27.60;;;10.40;;
23720;SDS011;42950;52.134;5.578;2024-01-27T09:51:05;23.73;;;9.50;;
23720;SDS011;42950;52.134;5.578;2024-01-27T09:53:32;27.75;;;10.75;;
23720;SDS011;42950;52.134;5.578;2024-01-27T09:55:57;22.73;;;9.48;;
23720;SDS011;42950;52.134;5.578;2024-01-27T09:58:28;23.45;;;10.45;;
23720;SDS011;42950;52.134;5.578;2024-01-27T10:00:54;22.88;;;10.00;;
23720;SDS011;42950;52.134;5.578;2024-01-27T10:03:25;21.13;;;9.93;;
23720;SDS011;42950;52.134;5.578;2024-01-27T10:05:56;27.17;;;9.68;;
23720;SDS011;42950;52.134;5.578;2024-01-27T10:08:23;24.70;;;9.93;;
23720;SDS011;42950;52.134;5.578;2024-01-27T10:10:50;22.15;;;9.05;;
23720;SDS011;42950;52.134;5.578;2024-01-27T10:13:20;27.50;;;10.98;;
23720;SDS011;42950;52.134;5.578;2024-01-27T10:16:01;27.27;;;11.75;;
23720;SDS011;42950;52.134;5.578;2024-01-27T10:18:28;25.85;;;9.93;;
23720;SDS011;42950;52.134;5.578;2024-01-27T10:20:54;25.45;;;9.77;;
23720;SDS011;42950;52.134;5.578;2024-01-27T10:23:20;25.23;;;9.93;;
23720;SDS011;42950;52.134;5.578;2024-01-27T10:25:46;24.17;;;8.50;;
23720;SDS011;42950;52.134;5.578;2024-01-27T10:28:11;23.35;;;8.77;;
23720;SDS011;42950;52.134;5.578;2024-01-27T10:30:37;21.48;;;8.15;;
23720;SDS011;42950;52.134;5.578;2024-01-27T10:33:03;25.23;;;9.05;;
23720;SDS011;42950;52.134;5.578;2024-01-27T10:35:29;21.50;;;9.10;;
23720;SDS011;42950;52.134;5.578;2024-01-27T10:37:55;18.83;;;9.13;;
23720;SDS011;42950;52.134;5.578;2024-01-27T10:40:21;29.70;;;9.82;;
23720;SDS011;42950;52.134;5.578;2024-01-27T10:43:01;27.10;;;9.23;;
23720;SDS011;42950;52.134;5.578;2024-01-27T10:48:03;24.17;;;9.13;;
23720;SDS011;42950;52.134;5.578;2024-01-27T10:50:32;28.67;;;9.73;;
23720;SDS011;42950;52.134;5.578;2024-01-27T10:53:09;21.25;;;8.65;;
23720;SDS011;42950;52.134;5.578;2024-01-27T10:55:43;22.17;;;9.00;;
23720;SDS011;42950;52.134;5.578;2024-01-27T10:58:10;19.00;;;8.65;;
23720;SDS011;42950;52.134;5.578;2024-01-27T11:00:37;28.77;;;9.25;;
23720;SDS011;42950;52.134;5.578;2024-01-27T11:03:05;16.75;;;8.98;;
23720;SDS011;42950;52.134;5.578;2024-01-27T11:05:32;19.48;;;8.63;;
23720;SDS011;42950;52.134;5.578;2024-01-27T11:08:00;24.67;;;8.82;;
23720;SDS011;42950;52.134;5.578;2024-01-27T11:10:27;21.38;;;8.38;;
23720;SDS011;42950;52.134;5.578;2024-01-27T11:13:00;25.58;;;8.65;;
23720;SDS011;42950;52.134;5.578;2024-01-27T11:15:26;19.38;;;9.07;;
23720;SDS011;42950;52.134;5.578;2024-01-27T11:17:56;21.30;;;8.90;;
23720;SDS011;42950;52.134;5.578;2024-01-27T11:20:23;24.67;;;8.23;;
23720;SDS011;42950;52.134;5.578;2024-01-27T11:22:49;19.73;;;8.45;;
23720;SDS011;42950;52.134;5.578;2024-01-27T11:25:18;23.67;;;8.13;;
23720;SDS011;42950;52.134;5.578;2024-01-27T11:27:44;23.83;;;8.05;;
23720;SDS011;42950;52.134;5.578;2024-01-27T11:30:30;27.73;;;8.45;;
23720;SDS011;42950;52.134;5.578;2024-01-27T11:33:01;17.23;;;7.72;;
23720;SDS011;42950;52.134;5.578;2024-01-27T11:35:27;24.38;;;8.13;;
23720;SDS011;42950;52.134;5.578;2024-01-27T11:37:54;21.98;;;7.38;;
23720;SDS011;42950;52.134;5.578;2024-01-27T11:40:20;18.80;;;6.90;;
23720;SDS011;42950;52.134;5.578;2024-01-27T11:45:25;19.38;;;6.55;;
23720;SDS011;42950;52.134;5.578;2024-01-27T11:47:53;18.70;;;6.47;;
23720;SDS011;42950;52.134;5.578;2024-01-27T11:50:20;21.45;;;6.38;;
23720;SDS011;42950;52.134;5.578;2024-01-27T11:52:46;22.27;;;6.35;;
23720;SDS011;42950;52.134;5.578;2024-01-27T11:55:12;18.10;;;5.75;;
23720;SDS011;42950;52.134;5.578;2024-01-27T11:57:40;15.40;;;5.80;;
23720;SDS011;42950;52.134;5.578;2024-01-27T12:00:06;19.55;;;6.18;;
23720;SDS011;42950;52.134;5.578;2024-01-27T12:02:32;16.08;;;6.15;;
23720;SDS011;42950;52.134;5.578;2024-01-27T12:04:57;17.92;;;6.20;;
23720;SDS011;42950;52.134;5.578;2024-01-27T12:07:23;18.20;;;6.40;;
23720;SDS011;42950;52.134;5.578;2024-01-27T12:09:50;20.80;;;6.55;;
23720;SDS011;42950;52.134;5.578;2024-01-27T12:12:16;25.35;;;7.28;;
23720;SDS011;42950;52.134;5.578;2024-01-27T12:14:45;20.02;;;6.43;;
23720;SDS011;42950;52.134;5.578;2024-01-27T12:17:15;20.42;;;6.70;;
23720;SDS011;42950;52.134;5.578;2024-01-27T12:19:51;20.52;;;6.63;;
23720;SDS011;42950;52.134;5.578;2024-01-27T12:22:23;20.63;;;6.32;;
23720;SDS011;42950;52.134;5.578;2024-01-27T12:24:51;15.18;;;7.15;;
23720;SDS011;42950;52.134;5.578;2024-01-27T12:27:16;19.65;;;6.32;;
23720;SDS011;42950;52.134;5.578;2024-01-27T12:29:42;21.20;;;6.80;;
23720;SDS011;42950;52.134;5.578;2024-01-27T12:32:08;19.73;;;7.07;;
23720;SDS011;42950;52.134;5.578;2024-01-27T12:34:39;13.43;;;6.22;;
23720;SDS011;42950;52.134;5.578;2024-01-27T12:37:07;16.05;;;6.50;;
23720;SDS011;42950;52.134;5.578;2024-01-27T12:39:35;18.65;;;6.82;;
23720;SDS011;42950;52.134;5.578;2024-01-27T12:42:01;21.95;;;5.95;;
23720;SDS011;42950;52.134;5.578;2024-01-27T12:44:26;14.52;;;5.80;;
23720;SDS011;42950;52.134;5.578;2024-01-27T12:46:52;13.63;;;6.07;;
23720;SDS011;42950;52.134;5.578;2024-01-27T12:49:18;19.52;;;6.55;;
23720;SDS011;42950;52.134;5.578;2024-01-27T12:51:44;20.83;;;6.78;;
23720;SDS011;42950;52.134;5.578;2024-01-27T12:54:10;24.50;;;7.25;;
23720;SDS011;42950;52.134;5.578;2024-01-27T12:56:36;22.83;;;7.15;;
23720;SDS011;42950;52.134;5.578;2024-01-27T12:59:02;18.95;;;6.50;;
23720;SDS011;42950;52.134;5.578;2024-01-27T13:01:27;17.83;;;6.68;;
23720;SDS011;42950;52.134;5.578;2024-01-27T13:03:53;18.77;;;6.10;;
23720;SDS011;42950;52.134;5.578;2024-01-27T13:06:18;15.95;;;5.95;;
23720;SDS011;42950;52.134;5.578;2024-01-27T13:08:45;17.15;;;5.90;;
23720;SDS011;42950;52.134;5.578;2024-01-27T13:11:11;16.63;;;6.18;;
23720;SDS011;42950;52.134;5.578;2024-01-27T13:13:38;20.48;;;6.35;;
23720;SDS011;42950;52.134;5.578;2024-01-27T13:16:05;18.65;;;6.20;;
23720;SDS011;42950;52.134;5.578;2024-01-27T13:18:31;20.38;;;6.07;;
23720;SDS011;42950;52.134;5.578;2024-01-27T13:20:56;15.27;;;6.18;;
23720;SDS011;42950;52.134;5.578;2024-01-27T13:23:22;18.63;;;6.22;;
23720;SDS011;42950;52.134;5.578;2024-01-27T13:25:48;15.02;;;5.63;;
23720;SDS011;42950;52.134;5.578;2024-01-27T13:28:13;17.42;;;5.90;;
23720;SDS011;42950;52.134;5.578;2024-01-27T13:30:39;17.05;;;5.38;;
23720;SDS011;42950;52.134;5.578;2024-01-27T13:33:05;19.13;;;5.40;;
23720;SDS011;42950;52.134;5.578;2024-01-27T13:35:30;17.65;;;5.30;;
23720;SDS011;42950;52.134;5.578;2024-01-27T13:37:56;20.10;;;6.65;;
23720;SDS011;42950;52.134;5.578;2024-01-27T13:40:22;21.30;;;6.03;;
23720;SDS011;42950;52.134;5.578;2024-01-27T13:42:48;18.10;;;5.97;;
23720;SDS011;42950;52.134;5.578;2024-01-27T13:45:13;18.65;;;5.55;;
23720;SDS011;42950;52.134;5.578;2024-01-27T13:47:39;17.35;;;5.65;;
23720;SDS011;42950;52.134;5.578;2024-01-27T13:50:05;20.00;;;5.60;;
23720;SDS011;42950;52.134;5.578;2024-01-27T13:52:31;21.33;;;6.70;;
23720;SDS011;42950;52.134;5.578;2024-01-27T13:54:57;19.55;;;6.60;;
23720;SDS011;42950;52.134;5.578;2024-01-27T13:57:23;18.52;;;5.88;;
23720;SDS011;42950;52.134;5.578;2024-01-27T13:59:49;16.63;;;5.97;;
23720;SDS011;42950;52.134;5.578;2024-01-27T14:02:14;19.73;;;6.75;;
23720;SDS011;42950;52.134;5.578;2024-01-27T14:04:40;17.33;;;5.85;;
23720;SDS011;42950;52.134;5.578;2024-01-27T14:07:06;19.15;;;5.10;;
23720;SDS011;42950;52.134;5.578;2024-01-27T14:09:33;18.42;;;5.28;;
23720;SDS011;42950;52.134;5.578;2024-01-27T14:11:59;17.83;;;4.90;;
23720;SDS011;42950;52.134;5.578;2024-01-27T14:14:26;13.05;;;4.50;;
23720;SDS011;42950;52.134;5.578;2024-01-27T14:16:51;17.27;;;5.57;;
23720;SDS011;42950;52.134;5.578;2024-01-27T14:19:17;16.45;;;5.18;;
23720;SDS011;42950;52.134;5.578;2024-01-27T14:21:42;19.77;;;5.75;;
23720;SDS011;42950;52.134;5.578;2024-01-27T14:24:08;20.48;;;5.45;;
23720;SDS011;42950;52.134;5.578;2024-01-27T14:26:35;23.42;;;6.40;;
23720;SDS011;42950;52.134;5.578;2024-01-27T14:29:02;21.35;;;5.70;;
23720;SDS011;42950;52.134;5.578;2024-01-27T14:31:28;14.57;;;4.90;;